Coolangatta, Queensland

3:53 PM AEST on September 01, 2016 (GMT +1000)
Coolangatta | | Change Station

Elev 20 ft 28.17 °S, 153.51 °E | Updated 23 minutes ago

Mostly Cloudy
Mostly Cloudy
72 °F
Feels Like 72 °F
N
16
Wind Variable Wind from North

Today
High -- | Low -- °F
--% Chance of Precip.
Yesterday
High -- | Low -- °F
Precip. -- in
Pressure 30.01 in
Visibility 6.2 miles
Clouds Scattered Clouds 5000 ft
Mostly Cloudy 5700 ft
Dew Point 63 °F
Humidity 73%
Rainfall 0.00 in
Snow Depth Not available.
6:00 AM 5:32 PM
Waning Crescent, 0% visible
METAR YBCG 010530Z AUTO 01014KT 9999 // SCT050 BKN057 22/17 Q1016
Pressure 30.01 in
Visibility 6.2 miles
Clouds Scattered Clouds 5000 ft
Mostly Cloudy 5700 ft
Dew Point 63 °F
Humidity 73%
Rainfall 0.00 in
Snow Depth Not available.
6:00 AM 5:32 PM
Waning Crescent, 0% visible
METAR YBCG 010530Z AUTO 01014KT 9999 // SCT050 BKN057 22/17 Q1016

10-Day Weather Forecast

Almanac

Astronomy

Sep. 01, 2016 Rise Set
Actual Time
Civil Twilight
Nautical Twilight
Astronomical Twilight
Moon
Length of Visible Light
Length of Day
Tomorrow will be .
, % of the Moon is Illuminated

Today's Extremes

Country Highs Country Lows

Community

WunderPhotos

Upload Photos

1,936,313 photos uploaded!

WunderBlog® & News

Nearby

Air Quality

  Air Quality AQ Index Pollutant
Not available.

Snow Depth

Station Depth Elevation

Earthquake Activity

City Distance Mag. Time & Date
Minimum magnitude displayed is 2.5.

Coastal Water Temperatures

Place Temperature

Stations

Nearby Weather Stations

Station Location Temp. Windchill Dew Point Humidity Wind Precip. Elev Updated Type